createdAt,value
2019-05-06T00:00:36.673Z,99.90
2019-05-06T00:03:06.129Z,99.90
2019-05-06T00:05:37.337Z,99.90
2019-05-06T00:08:06.798Z,99.90
2019-05-06T00:10:37.797Z,99.90
2019-05-06T00:13:07.393Z,99.90
2019-05-06T00:15:37.019Z,99.90
2019-05-06T00:18:06.742Z,99.90
2019-05-06T00:20:36.483Z,99.90
2019-05-06T00:23:07.825Z,99.90
2019-05-06T00:25:45.063Z,99.90
2019-05-06T00:28:16.513Z,99.90
2019-05-06T00:30:47.668Z,99.90
2019-05-06T00:33:17.188Z,99.90
2019-05-06T00:35:46.654Z,99.90
2019-05-06T00:38:16.114Z,99.90
2019-05-06T00:40:47.200Z,99.90
2019-05-06T00:43:16.681Z,99.90
2019-05-06T00:45:47.121Z,99.90
2019-05-06T00:48:16.625Z,99.90
2019-05-06T00:50:46.105Z,99.90
2019-05-06T00:53:17.172Z,99.90
2019-05-06T00:55:46.748Z,99.90
2019-05-06T00:58:16.218Z,99.90
2019-05-06T01:00:45.772Z,99.90
2019-05-06T01:03:15.293Z,99.90
2019-05-06T01:05:44.771Z,99.90
2019-05-06T01:08:19.876Z,99.90
2019-05-06T01:10:49.444Z,99.90
2019-05-06T01:13:20.719Z,99.90
2019-05-06T01:15:50.544Z,99.90
2019-05-06T01:18:20.042Z,99.90
2019-05-06T01:20:51.138Z,99.90
2019-05-06T01:23:20.781Z,99.90
2019-05-06T01:25:50.306Z,99.90
2019-05-06T01:28:19.763Z,99.90
2019-05-06T01:30:49.220Z,99.90
2019-05-06T01:33:18.746Z,99.90
2019-05-06T01:35:48.224Z,99.90
2019-05-06T01:38:19.321Z,99.90
2019-05-06T01:40:50.437Z,99.90
2019-05-06T01:43:21.539Z,99.90
2019-05-06T01:45:51.001Z,99.90
2019-05-06T01:48:22.119Z,99.90
2019-05-06T01:50:51.605Z,99.90
2019-05-06T01:53:21.060Z,99.90
2019-05-06T01:55:50.536Z,99.90
2019-05-06T01:58:20.025Z,99.90
2019-05-06T02:00:50.549Z,99.90
2019-05-06T02:03:20.044Z,99.90
2019-05-06T02:05:49.539Z,99.90
2019-05-06T02:08:18.989Z,99.90
2019-05-06T02:10:48.513Z,99.90
2019-05-06T02:13:17.994Z,99.90
2019-05-06T02:15:47.452Z,99.90
2019-05-06T02:18:18.712Z,99.90
2019-05-06T02:20:49.889Z,99.90
2019-05-06T02:23:21.142Z,99.90
2019-05-06T02:25:53.990Z,99.90
2019-05-06T02:28:23.681Z,99.90
2019-05-06T02:30:55.026Z,99.90
2019-05-06T02:33:35.723Z,99.90
2019-05-06T02:36:07.206Z,99.90
2019-05-06T02:38:47.030Z,99.90
2019-05-06T02:41:27.256Z,99.90
2019-05-06T02:43:56.746Z,99.90
2019-05-06T02:46:26.218Z,99.90
2019-05-06T02:48:57.325Z,99.90
2019-05-06T02:51:26.962Z,99.90
2019-05-06T02:54:15.763Z,99.90
2019-05-06T02:56:45.237Z,99.90
2019-05-06T02:59:14.889Z,99.90
2019-05-06T03:01:45.363Z,99.90
2019-05-06T03:04:14.959Z,99.90
2019-05-06T03:06:44.917Z,99.90
2019-05-06T03:09:14.515Z,99.90
2019-05-06T03:11:44.057Z,99.90
2019-05-06T03:14:14.101Z,99.90
2019-05-06T03:16:44.175Z,99.90
2019-05-06T03:19:13.942Z,99.90
2019-05-06T03:21:45.179Z,99.90
2019-05-06T03:26:58.225Z,99.90
2019-05-06T03:29:27.747Z,99.90
2019-05-06T03:31:57.608Z,99.90
2019-05-06T03:34:49.190Z,99.90
2019-05-06T03:36:58.631Z,99.90
2019-05-06T03:39:28.087Z,99.90
2019-05-06T03:41:57.598Z,99.90
2019-05-06T03:44:27.067Z,99.90
2019-05-06T03:46:58.529Z,99.90
2019-05-06T03:49:29.661Z,99.90
2019-05-06T03:51:59.158Z,99.90
2019-05-06T03:54:29.714Z,99.90
2019-05-06T03:56:59.496Z,99.90
2019-05-06T03:59:33.564Z,99.90
2019-05-06T04:02:05.336Z,99.90
2019-05-06T04:04:34.422Z,99.90
2019-05-06T04:07:04.162Z,99.90
2019-05-06T04:09:36.931Z,99.90
2019-05-06T04:12:05.165Z,99.90
2019-05-06T04:14:34.919Z,99.90
2019-05-06T04:17:06.254Z,99.90
2019-05-06T04:19:38.263Z,99.90
2019-05-06T04:22:12.562Z,99.90
2019-05-06T04:24:43.061Z,99.90
2019-05-06T04:27:18.889Z,99.90
2019-05-06T04:29:48.660Z,99.90
2019-05-06T04:32:18.849Z,99.90
2019-05-06T04:34:48.788Z,99.90
2019-05-06T04:37:19.403Z,99.90
2019-05-06T04:39:53.160Z,99.90
2019-05-06T04:42:23.261Z,99.90
2019-05-06T04:44:53.722Z,99.90
2019-05-06T04:47:24.311Z,99.90
2019-05-06T04:49:54.433Z,99.90
2019-05-06T04:52:26.053Z,99.90
2019-05-06T04:54:55.136Z,99.90
2019-05-06T04:57:25.026Z,99.90
2019-05-06T04:59:55.336Z,99.90
2019-05-06T05:02:25.191Z,99.90
2019-05-06T05:05:06.960Z,99.90
2019-05-06T05:07:36.921Z,99.90
2019-05-06T05:10:08.798Z,99.90
2019-05-06T05:12:42.563Z,99.90
2019-05-06T05:15:13.133Z,99.90
2019-05-06T05:17:44.203Z,99.90
2019-05-06T05:20:14.102Z,99.90
2019-05-06T05:22:43.796Z,99.90
2019-05-06T05:25:13.893Z,99.90
2019-05-06T05:27:43.495Z,99.90
2019-05-06T05:30:13.568Z,99.90
2019-05-06T05:32:43.350Z,99.90
2019-05-06T05:35:13.132Z,99.90
2019-05-06T05:37:42.660Z,99.90
2019-05-06T05:40:12.996Z,99.90
2019-05-06T05:42:44.649Z,99.90
2019-05-06T05:45:14.810Z,99.90
2019-05-06T05:47:44.821Z,99.90
2019-05-06T05:50:16.257Z,99.90
2019-05-06T05:52:45.975Z,99.90
2019-05-06T05:55:15.586Z,99.90
2019-05-06T05:57:45.225Z,99.90
2019-05-06T06:00:16.614Z,99.90
2019-05-06T06:02:46.308Z,99.90
2019-05-06T06:05:16.225Z,99.90
2019-05-06T06:07:45.951Z,99.90
2019-05-06T06:10:17.732Z,99.90
2019-05-06T06:12:47.302Z,99.90
2019-05-06T06:15:18.689Z,99.90
2019-05-06T06:17:51.941Z,99.90
2019-05-06T06:20:23.323Z,99.90
2019-05-06T06:22:54.160Z,99.90
2019-05-06T06:25:24.323Z,99.90
2019-05-06T06:27:54.246Z,99.90
2019-05-06T06:30:25.390Z,99.90
2019-05-06T06:32:56.115Z,99.90
2019-05-06T06:35:27.272Z,99.90
2019-05-06T06:37:58.420Z,99.90
2019-05-06T06:40:28.149Z,99.90
2019-05-06T06:42:59.293Z,99.90
2019-05-06T06:45:28.837Z,99.90
2019-05-06T06:47:58.362Z,99.90
2019-05-06T06:50:38.641Z,99.90
2019-05-06T06:53:08.097Z,99.90
2019-05-06T06:55:39.249Z,99.90
2019-05-06T06:58:12.015Z,99.90
2019-05-06T07:00:43.158Z,99.90
2019-05-06T07:03:14.323Z,99.90
2019-05-06T07:05:46.376Z,99.90
2019-05-06T07:08:15.842Z,99.90
2019-05-06T07:10:45.691Z,99.90
2019-05-06T07:13:16.999Z,99.90
2019-05-06T07:15:46.798Z,99.90
2019-05-06T07:18:16.499Z,99.90
2019-05-06T07:20:47.838Z,99.90
2019-05-06T07:23:18.978Z,99.90
2019-05-06T07:25:48.567Z,98.90
2019-05-06T07:28:18.157Z,91.20
2019-05-06T07:30:47.653Z,76.40
2019-05-06T07:33:17.209Z,62.30
2019-05-06T07:35:46.793Z,52.70
2019-05-06T07:38:16.347Z,50.40
2019-05-06T07:40:53.501Z,51.00
2019-05-06T07:43:24.667Z,60.20
2019-05-06T07:45:55.773Z,65.20
2019-05-06T07:48:25.252Z,80.70
2019-05-06T07:50:54.973Z,99.90
2019-05-06T07:53:24.508Z,93.90
2019-05-06T07:55:54.028Z,94.40
2019-05-06T07:58:23.501Z,90.60
2019-05-06T08:00:53.007Z,78.50
2019-05-06T08:03:22.590Z,65.90
2019-05-06T08:05:58.250Z,69.70
2019-05-06T08:08:23.279Z,70.50
2019-05-06T08:10:52.820Z,61.80
2019-05-06T08:13:22.682Z,53.40
2019-05-06T08:15:53.029Z,51.80
2019-05-06T08:18:23.475Z,50.30
2019-05-06T08:20:57.806Z,49.70
2019-05-06T08:23:28.956Z,45.90
2019-05-06T08:26:10.018Z,44.80
2019-05-06T08:28:38.596Z,50.70
2019-05-06T08:31:02.380Z,57.20
2019-05-06T08:33:32.738Z,61.40
2019-05-06T08:36:11.700Z,70.60
2019-05-06T08:38:36.882Z,78.30
2019-05-06T08:41:06.526Z,74.70
2019-05-06T08:43:35.994Z,69.10
2019-05-06T08:46:05.498Z,64.10
2019-05-06T08:48:35.021Z,62.50
2019-05-06T08:51:09.005Z,66.30
2019-05-06T08:53:39.007Z,78.40
2019-05-06T08:56:12.584Z,85.80
2019-05-06T08:58:43.327Z,88.30
2019-05-06T09:01:15.044Z,90.70
2019-05-06T09:03:44.968Z,99.90
2019-05-06T09:06:26.481Z,99.90
2019-05-06T09:09:07.547Z,99.90
2019-05-06T09:11:37.249Z,99.90
2019-05-06T09:14:09.821Z,99.90
2019-05-06T09:16:38.917Z,99.90
2019-05-06T09:19:27.719Z,99.90
2019-05-06T09:21:57.273Z,99.90
2019-05-06T09:24:26.739Z,99.90
2019-05-06T09:26:57.933Z,99.90
2019-05-06T09:29:29.058Z,98.60
2019-05-06T09:32:01.814Z,99.90
2019-05-06T09:34:32.999Z,99.90
2019-05-06T09:37:07.814Z,99.40
2019-05-06T09:39:37.327Z,99.90
2019-05-06T09:42:06.948Z,99.70
2019-05-06T09:44:36.408Z,96.00
2019-05-06T09:47:07.828Z,92.20
2019-05-06T09:49:38.984Z,90.10
2019-05-06T09:52:08.485Z,88.60
2019-05-06T09:54:39.779Z,80.70
2019-05-06T09:57:12.891Z,81.70
2019-05-06T09:59:42.267Z,81.10
2019-05-06T10:02:12.541Z,72.20
2019-05-06T10:04:42.919Z,74.30
2019-05-06T10:07:12.778Z,75.30
2019-05-06T10:09:43.409Z,70.90
2019-05-06T10:12:13.394Z,74.90
2019-05-06T10:14:43.529Z,82.30
2019-05-06T10:17:13.411Z,83.00
2019-05-06T10:19:43.181Z,68.70
2019-05-06T10:22:12.933Z,54.70
2019-05-06T10:24:43.109Z,51.20
2019-05-06T10:27:13.170Z,47.60
2019-05-06T10:29:44.311Z,47.00
2019-05-06T10:32:22.433Z,47.20
2019-05-06T10:34:52.627Z,50.00
2019-05-06T10:37:27.893Z,56.80
2019-05-06T10:40:04.875Z,59.50
2019-05-06T10:42:38.954Z,84.60
2019-05-06T10:45:13.123Z,93.70
2019-05-06T10:47:42.623Z,85.30
2019-05-06T10:50:12.748Z,78.50
2019-05-06T10:52:43.834Z,71.40
2019-05-06T10:55:13.483Z,66.60
2019-05-06T10:57:44.714Z,61.90
2019-05-06T11:00:14.745Z,64.30
2019-05-06T11:02:45.895Z,58.40
2019-05-06T11:05:16.839Z,51.70
2019-05-06T11:07:46.384Z,49.20
2019-05-06T11:10:24.443Z,49.60
2019-05-06T11:12:47.702Z,51.00
2019-05-06T11:15:23.518Z,50.70
2019-05-06T11:17:52.945Z,55.10
2019-05-06T11:20:24.150Z,51.80
2019-05-06T11:22:54.081Z,49.80
2019-05-06T11:25:23.713Z,51.70
2019-05-06T11:27:53.394Z,51.20
2019-05-06T11:30:24.800Z,49.80
2019-05-06T11:32:56.093Z,53.10
2019-05-06T11:35:27.343Z,50.20
2019-05-06T11:37:59.462Z,50.40
2019-05-06T11:40:28.987Z,46.10
2019-05-06T11:42:58.535Z,48.10
2019-05-06T11:45:28.049Z,48.90
2019-05-06T11:47:57.523Z,48.10
2019-05-06T11:50:27.170Z,48.60
2019-05-06T11:52:57.350Z,46.80
2019-05-06T11:55:31.227Z,46.60
2019-05-06T11:57:58.084Z,46.40
2019-05-06T12:00:29.430Z,46.80
2019-05-06T12:02:58.927Z,48.10
2019-05-06T12:05:28.706Z,47.80
2019-05-06T12:08:07.237Z,48.90
2019-05-06T12:10:29.500Z,50.30
2019-05-06T12:12:59.023Z,50.20
2019-05-06T12:15:28.562Z,49.60
2019-05-06T12:17:58.040Z,51.10
2019-05-06T12:20:27.533Z,52.20
2019-05-06T12:22:57.026Z,50.00
2019-05-06T12:25:26.570Z,49.90
2019-05-06T12:27:56.097Z,50.50
2019-05-06T12:30:28.222Z,46.40
2019-05-06T12:32:59.359Z,47.30
2019-05-06T12:35:28.850Z,42.90
2019-05-06T12:38:05.167Z,41.50
2019-05-06T12:40:32.055Z,43.70
2019-05-06T12:43:04.114Z,39.60
2019-05-06T12:45:35.519Z,37.80
2019-05-06T12:48:06.727Z,37.50
2019-05-06T12:50:36.759Z,35.50
2019-05-06T12:53:06.222Z,39.80
2019-05-06T12:55:36.096Z,37.00
2019-05-06T12:58:05.618Z,36.50
2019-05-06T13:00:35.114Z,33.90
2019-05-06T13:03:04.711Z,33.00
2019-05-06T13:05:34.406Z,34.40
2019-05-06T13:08:05.938Z,35.30
2019-05-06T13:10:54.528Z,34.40
2019-05-06T13:13:24.300Z,33.60
2019-05-06T13:15:53.825Z,38.50
2019-05-06T13:18:23.400Z,37.30
2019-05-06T13:20:53.439Z,37.80
2019-05-06T13:23:26.968Z,36.70
2019-05-06T13:25:56.495Z,37.90
2019-05-06T13:28:30.433Z,37.50
2019-05-06T13:31:13.374Z,37.50
2019-05-06T13:36:07.903Z,36.10
2019-05-06T13:38:37.391Z,35.10
2019-05-06T13:41:06.865Z,36.60
2019-05-06T13:43:37.986Z,36.00
2019-05-06T13:46:09.305Z,34.80
2019-05-06T13:48:42.648Z,38.30
2019-05-06T13:51:13.659Z,37.30
2019-05-06T13:54:02.751Z,37.80
2019-05-06T13:56:33.341Z,36.00
2019-05-06T13:59:05.084Z,37.20
2019-05-06T14:01:35.891Z,37.50
2019-05-06T14:04:05.471Z,37.40
2019-05-06T14:06:35.326Z,36.10
2019-05-06T14:09:08.334Z,37.50
2019-05-06T14:11:38.249Z,37.90
2019-05-06T14:14:08.176Z,37.50
2019-05-06T14:16:37.675Z,37.50
2019-05-06T14:19:07.218Z,37.80
2019-05-06T14:21:36.689Z,37.10
2019-05-06T14:24:06.189Z,37.70
2019-05-06T14:26:37.270Z,36.70
2019-05-06T14:29:08.554Z,37.20
2019-05-06T14:31:39.663Z,38.00
2019-05-06T14:34:09.134Z,38.70
2019-05-06T14:36:38.645Z,39.30
2019-05-06T14:39:09.888Z,40.80
2019-05-06T14:41:44.580Z,38.50
2019-05-06T14:44:12.306Z,38.70
2019-05-06T14:46:43.382Z,39.60
2019-05-06T14:49:15.514Z,39.20
2019-05-06T14:51:53.526Z,38.80
2019-05-06T14:54:22.707Z,39.90
2019-05-06T14:56:53.783Z,39.10
2019-05-06T14:59:23.602Z,39.30
2019-05-06T15:01:53.907Z,38.70
2019-05-06T15:04:23.525Z,39.00
2019-05-06T15:06:53.184Z,40.70
2019-05-06T15:09:24.438Z,40.80
2019-05-06T15:11:53.899Z,41.20
2019-05-06T15:14:23.406Z,40.20
2019-05-06T15:16:53.145Z,39.70
2019-05-06T15:19:22.879Z,39.80
2019-05-06T15:21:53.083Z,39.30
2019-05-06T15:24:24.418Z,39.30
2019-05-06T15:27:13.353Z,38.60
2019-05-06T15:29:44.434Z,39.60
2019-05-06T15:32:15.664Z,39.50
2019-05-06T15:34:46.782Z,39.70
2019-05-06T15:37:17.906Z,40.80
2019-05-06T15:39:47.408Z,39.30
2019-05-06T15:42:17.040Z,40.10
2019-05-06T15:44:46.546Z,39.20
2019-05-06T15:47:16.015Z,40.20
2019-05-06T15:49:45.494Z,38.70
2019-05-06T15:52:15.066Z,39.30
2019-05-06T15:54:44.589Z,40.40
2019-05-06T15:57:14.088Z,41.70
2019-05-06T15:59:44.457Z,40.40
2019-05-06T16:02:14.107Z,42.30
2019-05-06T16:04:43.598Z,40.60
2019-05-06T16:07:13.156Z,40.30
2019-05-06T16:09:43.044Z,40.90
2019-05-06T16:12:12.918Z,41.10
2019-05-06T16:14:42.618Z,41.40
2019-05-06T16:17:12.739Z,41.60
2019-05-06T16:19:43.508Z,42.60
2019-05-06T16:22:13.012Z,42.60
2019-05-06T16:24:44.137Z,42.30
2019-05-06T16:27:13.632Z,43.80
2019-05-06T16:29:43.163Z,43.00
2019-05-06T16:32:12.719Z,42.30
2019-05-06T16:34:43.100Z,42.00
2019-05-06T16:37:12.805Z,43.20
2019-05-06T16:39:42.518Z,42.90
2019-05-06T16:42:12.880Z,43.80
2019-05-06T16:44:45.091Z,42.50
2019-05-06T16:47:15.743Z,42.90
2019-05-06T16:49:45.200Z,44.00
2019-05-06T16:52:14.723Z,43.50
2019-05-06T16:54:44.205Z,43.20
2019-05-06T16:57:15.287Z,43.80
2019-05-06T16:59:44.827Z,43.60
2019-05-06T17:02:15.886Z,44.70
2019-05-06T17:04:47.012Z,44.60
2019-05-06T17:07:16.958Z,43.40
2019-05-06T17:09:46.427Z,43.50
2019-05-06T17:12:15.945Z,42.70
2019-05-06T17:14:45.441Z,42.40
2019-05-06T17:17:15.007Z,43.70
2019-05-06T17:19:44.462Z,43.70
2019-05-06T17:22:13.952Z,44.10
2019-05-06T17:24:43.462Z,45.10
2019-05-06T17:27:13.023Z,45.90
2019-05-06T17:29:44.174Z,47.40
2019-05-06T17:32:15.334Z,48.10
2019-05-06T17:34:46.446Z,48.90
2019-05-06T17:37:17.570Z,49.20
2019-05-06T17:39:47.061Z,47.80
2019-05-06T17:42:16.555Z,48.30
2019-05-06T17:44:46.073Z,50.70
2019-05-06T17:47:23.290Z,49.40
2019-05-06T17:49:53.011Z,52.30
2019-05-06T17:52:24.197Z,54.60
2019-05-06T17:54:53.678Z,53.20
2019-05-06T17:57:23.186Z,55.10
2019-05-06T17:59:52.955Z,58.00
2019-05-06T18:02:24.109Z,59.60
2019-05-06T18:04:53.669Z,59.60
2019-05-06T18:07:23.252Z,63.90
2019-05-06T18:09:52.891Z,66.30
2019-05-06T18:12:23.315Z,71.30
2019-05-06T18:14:53.522Z,73.70
2019-05-06T18:17:23.154Z,76.60
2019-05-06T18:19:52.670Z,82.60
2019-05-06T18:22:22.714Z,82.40
2019-05-06T18:24:52.615Z,88.40
2019-05-06T18:27:22.691Z,91.30
2019-05-06T18:29:53.250Z,92.80
2019-05-06T18:32:23.474Z,92.90
2019-05-06T18:34:53.088Z,95.80
2019-05-06T18:37:23.343Z,98.60
2019-05-06T18:39:53.182Z,99.40
2019-05-06T18:42:43.033Z,99.90
2019-05-06T18:45:13.785Z,99.90
2019-05-06T18:47:43.265Z,99.90
2019-05-06T18:50:13.498Z,99.90
2019-05-06T18:52:43.173Z,99.90
2019-05-06T18:55:13.262Z,99.90
2019-05-06T18:57:42.743Z,99.90
2019-05-06T19:00:13.419Z,99.90
2019-05-06T19:02:42.874Z,99.90
2019-05-06T19:05:14.472Z,99.90
2019-05-06T19:07:46.582Z,99.90
2019-05-06T19:10:17.471Z,99.90
2019-05-06T19:12:46.985Z,99.90
2019-05-06T19:15:16.677Z,99.90
2019-05-06T19:17:46.180Z,99.90
2019-05-06T19:20:16.196Z,99.90
2019-05-06T19:22:45.676Z,99.90
2019-05-06T19:25:15.848Z,99.90
2019-05-06T19:27:45.533Z,99.90
2019-05-06T19:30:16.016Z,99.90
2019-05-06T19:32:45.871Z,99.90
2019-05-06T19:35:15.689Z,99.90
2019-05-06T19:37:45.215Z,99.90
2019-05-06T19:40:15.207Z,99.90
2019-05-06T19:42:50.291Z,99.90
2019-05-06T19:45:22.228Z,99.90
2019-05-06T19:47:52.178Z,99.90
2019-05-06T19:50:25.727Z,99.90
2019-05-06T19:52:52.927Z,99.90
2019-05-06T19:55:23.164Z,99.90
2019-05-06T19:57:52.770Z,99.90
2019-05-06T20:00:22.908Z,99.90
2019-05-06T20:02:52.802Z,99.90
2019-05-06T20:05:24.290Z,99.90
2019-05-06T20:07:55.385Z,99.90
2019-05-06T20:10:26.550Z,99.90
2019-05-06T20:13:01.954Z,99.90
2019-05-06T20:15:30.480Z,99.90
2019-05-06T20:17:59.956Z,99.90
2019-05-06T20:20:32.639Z,99.90
2019-05-06T20:23:02.705Z,99.90
2019-05-06T20:25:32.071Z,99.90
2019-05-06T20:28:02.394Z,99.90
2019-05-06T20:30:32.739Z,99.90
2019-05-06T20:33:02.419Z,99.90
2019-05-06T20:35:32.951Z,99.90
2019-05-06T20:38:02.886Z,99.90
2019-05-06T20:40:33.039Z,99.90
2019-05-06T20:43:16.667Z,99.90
2019-05-06T20:45:35.475Z,99.90
2019-05-06T20:48:05.432Z,99.90
2019-05-06T20:50:34.916Z,99.90
2019-05-06T20:53:04.341Z,99.90
2019-05-06T20:55:35.708Z,99.90
2019-05-06T20:58:05.499Z,99.90
2019-05-06T21:00:34.978Z,99.90
2019-05-06T21:03:04.794Z,99.90
2019-05-06T21:05:34.299Z,99.90
2019-05-06T21:08:03.804Z,99.90
2019-05-06T21:10:33.327Z,99.90
2019-05-06T21:13:02.808Z,99.90
2019-05-06T21:15:32.638Z,99.90
2019-05-06T21:18:04.405Z,99.90
2019-05-06T21:20:33.380Z,99.90
2019-05-06T21:23:02.864Z,99.90
2019-05-06T21:25:32.750Z,99.90
2019-05-06T21:28:03.032Z,99.90
2019-05-06T21:30:33.273Z,99.90
2019-05-06T21:33:02.748Z,99.90
2019-05-06T21:35:33.129Z,99.90
2019-05-06T21:38:02.826Z,99.90
2019-05-06T21:40:32.877Z,99.90
2019-05-06T21:43:02.448Z,99.90
2019-05-06T21:45:33.129Z,99.90
2019-05-06T21:48:03.363Z,99.90
2019-05-06T21:50:33.244Z,99.90
2019-05-06T21:53:03.642Z,99.90
2019-05-06T21:55:33.127Z,99.90
2019-05-06T21:58:02.632Z,99.90
2019-05-06T22:00:34.201Z,99.90
2019-05-06T22:03:03.994Z,99.90
2019-05-06T22:05:33.503Z,99.90
2019-05-06T22:08:23.745Z,99.90
2019-05-06T22:10:54.457Z,99.90
2019-05-06T22:13:23.950Z,99.90
2019-05-06T22:15:53.533Z,99.90
2019-05-06T22:18:23.101Z,99.90
2019-05-06T22:20:54.265Z,99.90
2019-05-06T22:23:23.909Z,99.90
2019-05-06T22:25:53.380Z,99.90
2019-05-06T22:28:25.832Z,99.90
2019-05-06T22:30:55.297Z,99.90
2019-05-06T22:33:24.848Z,99.90
2019-05-06T22:35:54.911Z,99.90
2019-05-06T22:38:24.554Z,99.90
2019-05-06T22:40:54.055Z,99.90
2019-05-06T22:43:23.515Z,99.90
2019-05-06T22:45:58.965Z,99.90
2019-05-06T22:48:28.407Z,99.90
2019-05-06T22:50:57.885Z,99.90
2019-05-06T22:53:27.426Z,99.90
2019-05-06T22:55:58.522Z,99.90
2019-05-06T22:58:27.964Z,99.90
2019-05-06T23:00:58.280Z,99.90
2019-05-06T23:03:29.357Z,99.90
2019-05-06T23:05:58.838Z,99.90
2019-05-06T23:08:28.358Z,99.90
2019-05-06T23:10:57.918Z,99.90
2019-05-06T23:13:27.395Z,99.90
2019-05-06T23:15:56.888Z,99.90
2019-05-06T23:18:26.380Z,99.90
2019-05-06T23:20:55.834Z,99.90
2019-05-06T23:23:25.337Z,99.90
2019-05-06T23:26:02.913Z,99.90
2019-05-06T23:28:32.396Z,99.90
2019-05-06T23:31:01.990Z,99.90
2019-05-06T23:33:32.314Z,99.90
2019-05-06T23:36:02.654Z,99.90
2019-05-06T23:38:36.795Z,99.90
2019-05-06T23:41:14.512Z,99.90
2019-05-06T23:43:48.501Z,99.90
2019-05-06T23:46:23.005Z,99.90
2019-05-06T23:48:57.016Z,99.90
2019-05-06T23:51:33.021Z,99.90
2019-05-06T23:54:06.753Z,99.90
2019-05-06T23:56:43.372Z,99.90
2019-05-06T23:59:16.968Z,99.90
